Accueil
METAR-TAF:

METAR-TAF

Aéroports :

Aéroport de Novossibirsk-Tolmatchevo

Novossibirsk, Russie

latitude: 55-01N, longitude: 082-38E, altitude: 111 m

Observation

Le bulletin a été fait il y a 22 minutes, à 22:00 UTC
Vent calme
Température -6°C
Humidité 86%
Pression 1017 hPa
Visibilité: 3100 m
brume, fumée

METAR: UNNT 192200Z 00000MPS 7000 3100N BR FU NSC M06/M08 Q1017 R07/090070 R34/090070 NOSIG RMK QFE753/1004

Heure: 05:22 (22:22 UTC)

Prévision

Le bulletin a été fait il y a 2 heures et 22 minutes, à 20:00 UTC
Prévision valable du 19 à 21 UTC au 20 à 21 UTC
Vent 6 kt de ouest avec des rafales jusqu'à 16 kt
Visibilité 10 km ou plus
pas de nuages en-dessous de 1500 mètres et pas de cumulonimbus.
Temporairement
du 19 à 21 UTC au 20 à 01 UTC
Visibilité: 3100 m
fumée

TAF: UNNT 192000Z 1921/2021 27003G08MPS CAVOK TEMPO 1921/2001 3100 FU

Observations et prévisions météorologiques de plus de 4000 aéroports (messages METAR et TAF).

Les stations disponibles sont représentées par des disques jaunes et rouges sur la carte.

Passer la souris dessus pour voir le nom de la station.

Cliquer dessus pour voir les observations et prévisions météorologiques.

Pour changer de carte: cliquez sur les boutons verts avec une croix noire pour zoomer, sur le bouton vert avec un tiret pour effectuer un zoom arrière, ou sur les flèches vertes pour les cartes adjacentes.


METAR-TAF: